createdAt,value
2023-02-14T00:01:47.722Z,78.69
2023-02-14T00:04:14.914Z,78.67
2023-02-14T00:06:42.289Z,78.61
2023-02-14T00:09:14.876Z,78.56
2023-02-14T00:11:42.482Z,78.61
2023-02-14T00:14:28.320Z,78.55
2023-02-14T00:16:55.465Z,78.60
2023-02-14T00:19:22.771Z,78.58
2023-02-14T00:21:49.869Z,79.02
2023-02-14T00:24:19.847Z,79.33
2023-02-14T00:26:47.088Z,79.24
2023-02-14T00:29:20.072Z,79.37
2023-02-14T00:31:47.272Z,79.51
2023-02-14T00:34:16.029Z,79.36
2023-02-14T00:36:43.158Z,79.53
2023-02-14T00:39:12.927Z,79.53
2023-02-14T00:41:40.631Z,79.68
2023-02-14T00:44:09.802Z,79.66
2023-02-14T00:46:37.397Z,80.09
2023-02-14T00:49:05.866Z,80.22
2023-02-14T00:51:35.094Z,80.45
2023-02-14T00:54:02.990Z,80.64
2023-02-14T00:56:32.217Z,80.97
2023-02-14T00:58:59.378Z,81.21
2023-02-14T01:01:27.286Z,81.15
2023-02-14T01:03:54.576Z,81.18
2023-02-14T01:06:21.782Z,81.11
2023-02-14T01:08:50.377Z,81.30
2023-02-14T01:11:20.255Z,81.44
2023-02-14T01:13:48.240Z,81.85
2023-02-14T01:16:17.739Z,82.17
2023-02-14T01:18:45.286Z,82.21
2023-02-14T01:21:17.779Z,82.46
2023-02-14T01:23:45.110Z,82.34
2023-02-14T01:26:12.171Z,82.38
2023-02-14T01:28:39.686Z,82.24
2023-02-14T01:31:13.360Z,82.17
2023-02-14T01:33:40.969Z,82.20
2023-02-14T01:36:15.168Z,82.26
2023-02-14T01:38:43.155Z,82.49
2023-02-14T01:41:10.310Z,82.70
2023-02-14T01:43:55.434Z,82.67
2023-02-14T01:46:26.397Z,82.78
2023-02-14T01:49:20.583Z,83.17
2023-02-14T01:51:53.390Z,83.08
2023-02-14T01:54:21.178Z,83.01
2023-02-14T01:56:50.695Z,83.03
2023-02-14T01:59:20.327Z,83.07
2023-02-14T02:01:48.171Z,83.04
2023-02-14T02:04:17.965Z,82.93
2023-02-14T02:06:47.487Z,83.18
2023-02-14T02:09:36.639Z,83.09
2023-02-14T02:12:03.629Z,83.41
2023-02-14T02:14:31.408Z,83.63
2023-02-14T02:17:21.666Z,83.81
2023-02-14T02:20:03.000Z,83.38
2023-02-14T02:22:51.555Z,83.54
2023-02-14T02:25:55.085Z,83.40
2023-02-14T02:28:43.634Z,83.35
2023-02-14T02:31:19.889Z,83.26
2023-02-14T02:34:03.428Z,83.37
2023-02-14T02:36:36.866Z,83.68
2023-02-14T02:39:18.234Z,83.82
2023-02-14T02:41:48.686Z,83.79
2023-02-14T02:44:26.349Z,83.73
2023-02-14T02:47:38.138Z,83.96
2023-02-14T02:50:38.523Z,83.86
2023-02-14T02:53:39.300Z,84.15
2023-02-14T02:56:43.722Z,83.96
2023-02-14T02:59:30.360Z,83.84
2023-02-14T03:02:01.483Z,84.13
2023-02-14T03:04:48.441Z,84.05
2023-02-14T03:07:34.112Z,84.47
2023-02-14T03:10:25.598Z,84.67
2023-02-14T03:13:12.682Z,84.72
2023-02-14T03:15:52.134Z,84.74
2023-02-14T03:18:51.215Z,84.67
2023-02-14T03:21:41.198Z,84.45
2023-02-14T03:24:37.610Z,84.22
2023-02-14T03:27:22.646Z,84.05
2023-02-14T03:30:07.154Z,84.34
2023-02-14T03:32:54.699Z,84.52
2023-02-14T03:36:01.920Z,84.63
2023-02-14T03:38:56.012Z,84.76
2023-02-14T03:41:34.183Z,84.97
2023-02-14T03:44:04.024Z,85.44
2023-02-14T03:46:38.224Z,85.55
2023-02-14T03:49:10.019Z,85.60
2023-02-14T03:52:06.703Z,85.56
2023-02-14T03:54:34.565Z,85.43
2023-02-14T03:57:07.563Z,85.62
2023-02-14T03:59:35.261Z,85.67
2023-02-14T04:02:12.273Z,85.88
2023-02-14T04:04:42.711Z,85.98
2023-02-14T04:07:16.066Z,86.12
2023-02-14T04:09:46.268Z,86.22
2023-02-14T04:12:13.859Z,86.30
2023-02-14T04:14:43.235Z,86.65
2023-02-14T04:17:34.423Z,86.61
2023-02-14T04:20:01.459Z,86.54
2023-02-14T04:22:29.142Z,86.37
2023-02-14T04:24:58.733Z,86.38
2023-02-14T04:27:28.883Z,86.32
2023-02-14T04:29:57.080Z,86.27
2023-02-14T04:32:24.158Z,86.37
2023-02-14T04:34:53.019Z,86.40
2023-02-14T04:37:23.839Z,86.81
2023-02-14T04:39:54.688Z,86.87
2023-02-14T04:42:21.643Z,87.33
2023-02-14T04:44:49.426Z,87.28
2023-02-14T04:47:16.735Z,87.44
2023-02-14T04:49:43.813Z,87.51
2023-02-14T04:52:15.154Z,87.89
2023-02-14T04:54:45.276Z,88.06
2023-02-14T04:57:12.425Z,88.32
2023-02-14T04:59:41.519Z,88.40
2023-02-14T05:02:08.408Z,88.94
2023-02-14T05:04:37.580Z,89.03
2023-02-14T05:07:04.788Z,89.14
2023-02-14T05:09:33.082Z,89.42
2023-02-14T05:12:00.111Z,89.52
2023-02-14T05:14:30.636Z,89.59
2023-02-14T05:16:58.095Z,89.85
2023-02-14T05:19:27.124Z,89.99
2023-02-14T05:21:54.338Z,89.94
2023-02-14T05:24:22.137Z,89.84
2023-02-14T05:26:49.697Z,90.12
2023-02-14T05:29:17.216Z,90.06
2023-02-14T05:31:44.201Z,90.28
2023-02-14T05:34:12.332Z,90.28
2023-02-14T05:36:39.553Z,90.03
2023-02-14T05:39:07.784Z,89.91
2023-02-14T05:41:34.696Z,89.89
2023-02-14T05:44:01.706Z,89.84
2023-02-14T05:46:28.773Z,89.72
2023-02-14T05:48:55.932Z,89.74
2023-02-14T05:51:23.388Z,89.70
2023-02-14T05:53:50.903Z,89.55
2023-02-14T05:56:18.528Z,89.73
2023-02-14T05:59:09.119Z,89.77
2023-02-14T06:01:59.808Z,89.97
2023-02-14T06:04:27.879Z,90.20
2023-02-14T06:06:55.523Z,90.42
2023-02-14T06:09:23.158Z,90.47
2023-02-14T06:11:50.275Z,90.59
2023-02-14T06:14:17.607Z,90.53
2023-02-14T06:17:41.711Z,90.47
2023-02-14T06:20:17.645Z,90.85
2023-02-14T06:22:47.516Z,90.82
2023-02-14T06:25:20.830Z,90.70
2023-02-14T06:27:51.457Z,90.38
2023-02-14T06:30:20.361Z,90.49
2023-02-14T06:33:02.665Z,90.34
2023-02-14T06:35:33.507Z,90.36
2023-02-14T06:38:02.187Z,90.74
2023-02-14T06:40:32.203Z,90.71
2023-02-14T06:43:00.988Z,90.91
2023-02-14T06:45:29.958Z,90.87
2023-02-14T06:48:00.454Z,91.12
2023-02-14T06:50:29.697Z,91.18
2023-02-14T06:53:00.163Z,91.27
2023-02-14T06:55:29.123Z,91.18
2023-02-14T06:58:08.971Z,91.37
2023-02-14T07:00:43.496Z,91.38
2023-02-14T07:03:13.015Z,91.49
2023-02-14T07:05:41.798Z,91.46
2023-02-14T07:08:17.859Z,91.88
2023-02-14T07:11:01.841Z,92.30
2023-02-14T07:13:31.635Z,92.45
2023-02-14T07:16:04.840Z,92.59
2023-02-14T07:18:33.226Z,92.89
2023-02-14T07:21:02.357Z,92.78
2023-02-14T07:23:31.570Z,93.02
2023-02-14T07:26:00.036Z,93.04
2023-02-14T07:28:30.818Z,93.18
2023-02-14T07:31:01.652Z,93.43
2023-02-14T07:33:33.796Z,93.67
2023-02-14T07:36:19.428Z,93.78
2023-02-14T07:38:50.932Z,93.95
2023-02-14T07:41:20.891Z,93.87
2023-02-14T07:43:52.101Z,93.75
2023-02-14T07:46:21.181Z,93.70
2023-02-14T07:48:50.951Z,93.79
2023-02-14T07:51:19.851Z,93.85
2023-02-14T07:53:51.189Z,94.21
2023-02-14T07:56:20.110Z,94.35
2023-02-14T07:58:50.350Z,94.41
2023-02-14T08:01:38.067Z,94.45
2023-02-14T08:04:08.847Z,94.27
2023-02-14T08:06:41.461Z,94.14
2023-02-14T08:09:10.622Z,94.09
2023-02-14T08:12:01.466Z,94.18
2023-02-14T08:14:32.049Z,94.14
2023-02-14T08:17:03.689Z,94.28
2023-02-14T08:19:32.606Z,93.71
2023-02-14T08:22:02.223Z,93.54
2023-02-14T08:24:35.209Z,93.33
2023-02-14T08:27:05.732Z,93.07
2023-02-14T08:29:37.551Z,92.89
2023-02-14T08:32:06.982Z,92.81
2023-02-14T08:34:36.180Z,92.96
2023-02-14T08:37:06.522Z,92.92
2023-02-14T08:39:35.530Z,92.66
2023-02-14T08:42:06.178Z,92.67
2023-02-14T08:44:44.882Z,92.67
2023-02-14T08:47:15.716Z,92.59
2023-02-14T08:49:57.864Z,92.78
2023-02-14T08:52:26.737Z,92.49
2023-02-14T08:54:57.036Z,92.54
2023-02-14T08:57:28.042Z,92.53
2023-02-14T08:59:59.975Z,92.39
2023-02-14T09:02:33.458Z,92.03
2023-02-14T09:05:08.018Z,92.10
2023-02-14T09:07:50.623Z,92.05
2023-02-14T09:10:38.229Z,92.10
2023-02-14T09:13:07.898Z,91.97
2023-02-14T09:15:44.160Z,92.03
2023-02-14T09:18:18.768Z,91.68
2023-02-14T09:30:14.429Z,91.20
2023-02-14T09:33:09.199Z,90.91
2023-02-14T09:35:45.517Z,90.72
2023-02-14T09:38:14.520Z,90.59
2023-02-14T09:41:54.507Z,90.12
2023-02-14T09:44:34.731Z,88.89
2023-02-14T09:47:45.871Z,88.45
2023-02-14T09:50:47.444Z,87.94
2023-02-14T09:53:33.510Z,87.31
2023-02-14T09:56:14.013Z,86.67
2023-02-14T09:58:50.218Z,85.80
2023-02-14T10:01:25.000Z,84.89
2023-02-14T10:04:21.354Z,83.83
2023-02-14T10:07:10.342Z,83.77
2023-02-14T10:10:31.728Z,83.51
2023-02-14T10:13:45.003Z,82.74
2023-02-14T10:16:37.640Z,82.44
2023-02-14T10:19:18.478Z,82.28
2023-02-14T10:21:55.105Z,81.34
2023-02-14T10:24:30.265Z,80.98
2023-02-14T10:27:02.645Z,80.82
2023-02-14T10:29:31.626Z,80.59
2023-02-14T10:32:04.561Z,79.76
2023-02-14T10:34:51.425Z,80.15
2023-02-14T10:37:45.160Z,79.59
2023-02-14T10:40:44.636Z,77.88
2023-02-14T10:43:32.080Z,74.67
2023-02-14T10:46:24.748Z,72.81
2023-02-14T10:49:01.008Z,70.09
2023-02-14T10:51:49.640Z,66.95
2023-02-14T10:54:29.057Z,64.49
2023-02-14T10:57:01.256Z,63.60
2023-02-14T10:59:39.387Z,62.95
2023-02-14T11:02:10.659Z,62.63
2023-02-14T11:04:38.891Z,62.28
2023-02-14T11:07:16.578Z,61.33
2023-02-14T11:09:47.349Z,60.15
2023-02-14T11:12:39.776Z,59.53
2023-02-14T11:15:14.698Z,58.45
2023-02-14T11:17:43.891Z,57.25
2023-02-14T11:20:18.776Z,56.90
2023-02-14T11:22:50.028Z,57.35
2023-02-14T11:25:23.930Z,58.13
2023-02-14T11:28:03.176Z,59.09
2023-02-14T11:30:33.715Z,59.53
2023-02-14T11:33:05.259Z,60.28
2023-02-14T11:35:37.402Z,61.27
2023-02-14T11:38:36.154Z,62.36
2023-02-14T11:41:06.867Z,62.85
2023-02-14T11:43:43.982Z,63.15
2023-02-14T11:46:23.708Z,63.82
2023-02-14T11:49:08.250Z,64.08
2023-02-14T11:51:40.696Z,64.48
2023-02-14T11:54:36.108Z,64.87
2023-02-14T11:57:57.292Z,65.36
2023-02-14T12:00:31.704Z,66.05
2023-02-14T12:03:02.390Z,66.07
2023-02-14T12:05:45.114Z,66.37
2023-02-14T12:08:19.531Z,66.59
2023-02-14T12:10:48.267Z,66.65
2023-02-14T12:13:16.695Z,66.81
2023-02-14T12:15:48.970Z,66.93
2023-02-14T12:18:42.810Z,67.27
2023-02-14T12:21:31.051Z,67.58
2023-02-14T12:24:05.791Z,67.82
2023-02-14T12:26:50.124Z,68.01
2023-02-14T12:29:35.145Z,67.71
2023-02-14T12:32:23.094Z,67.72
2023-02-14T12:34:52.225Z,67.56
2023-02-14T12:37:48.775Z,67.37
2023-02-14T12:40:36.929Z,67.46
2023-02-14T12:43:51.019Z,67.62
2023-02-14T12:46:52.720Z,67.76
2023-02-14T12:49:35.743Z,68.14
2023-02-14T12:52:16.581Z,68.25
2023-02-14T12:55:00.517Z,68.63
2023-02-14T12:57:32.359Z,68.68
2023-02-14T13:00:09.884Z,68.74
2023-02-14T13:03:02.938Z,68.49
2023-02-14T13:05:46.178Z,68.69
2023-02-14T13:08:43.356Z,68.92
2023-02-14T13:11:36.934Z,68.87
2023-02-14T13:14:12.465Z,68.87
2023-02-14T13:17:08.599Z,68.99
2023-02-14T13:20:07.807Z,68.93
2023-02-14T13:22:38.086Z,69.14
2023-02-14T13:25:16.277Z,69.18
2023-02-14T13:27:44.882Z,69.22
2023-02-14T13:30:22.953Z,69.41
2023-02-14T13:32:51.423Z,69.59
2023-02-14T13:35:21.427Z,69.88
2023-02-14T13:37:59.853Z,70.05
2023-02-14T13:40:29.219Z,70.19
2023-02-14T13:43:00.566Z,70.66
2023-02-14T13:45:38.443Z,70.72
2023-02-14T13:48:13.940Z,71.02
2023-02-14T13:50:51.964Z,71.13
2023-02-14T13:53:39.798Z,71.33
2023-02-14T13:56:17.113Z,71.31
2023-02-14T13:58:48.313Z,71.67
2023-02-14T14:01:39.857Z,71.65
2023-02-14T14:04:32.163Z,72.06
2023-02-14T14:07:03.809Z,72.33
2023-02-14T14:09:43.221Z,72.59
2023-02-14T14:12:26.862Z,72.86
2023-02-14T14:15:05.583Z,73.26
2023-02-14T14:17:43.401Z,73.54
2023-02-14T14:20:20.864Z,73.53
2023-02-14T14:23:00.556Z,73.68
2023-02-14T14:25:33.170Z,73.74
2023-02-14T14:28:01.431Z,73.78
2023-02-14T14:30:33.159Z,73.55
2023-02-14T14:33:29.856Z,73.58
2023-02-14T14:36:06.098Z,73.53
2023-02-14T14:38:47.347Z,73.78
2023-02-14T14:41:15.700Z,73.87
2023-02-14T14:43:44.383Z,73.82
2023-02-14T14:46:13.397Z,74.34
2023-02-14T14:48:51.865Z,74.30
2023-02-14T14:51:34.660Z,74.51
2023-02-14T14:54:07.720Z,74.77
2023-02-14T14:56:40.046Z,74.94
2023-02-14T14:59:19.597Z,75.21
2023-02-14T15:01:48.486Z,75.15
2023-02-14T15:04:30.661Z,75.49
2023-02-14T15:07:28.057Z,75.48
2023-02-14T15:09:56.613Z,75.89
2023-02-14T15:12:44.088Z,76.34
2023-02-14T15:15:13.839Z,76.68
2023-02-14T15:17:43.509Z,76.96
2023-02-14T15:20:18.602Z,77.15
2023-02-14T15:23:05.184Z,77.29
2023-02-14T15:25:35.650Z,77.45
2023-02-14T15:28:05.108Z,77.79
2023-02-14T15:30:38.271Z,77.84
2023-02-14T15:33:08.347Z,77.93
2023-02-14T15:35:39.081Z,78.00
2023-02-14T15:38:07.658Z,78.19
2023-02-14T15:40:36.473Z,78.43
2023-02-14T15:43:27.885Z,78.49
2023-02-14T15:46:01.155Z,78.40
2023-02-14T15:48:33.616Z,78.56
2023-02-14T15:54:04.305Z,78.50
2023-02-14T15:56:42.758Z,78.55
2023-02-14T15:59:32.195Z,78.67
2023-02-14T16:02:36.489Z,78.94
2023-02-14T16:05:07.501Z,79.28
2023-02-14T16:07:41.568Z,79.68
2023-02-14T16:10:27.148Z,79.67
2023-02-14T16:13:20.614Z,79.83
2023-02-14T16:15:59.537Z,80.24
2023-02-14T16:18:34.098Z,80.56
2023-02-14T16:21:18.141Z,80.64
2023-02-14T16:23:48.557Z,80.64
2023-02-14T16:26:19.558Z,81.01
2023-02-14T16:28:48.062Z,81.12
2023-02-14T16:31:17.497Z,81.43
2023-02-14T16:33:46.589Z,81.52
2023-02-14T16:36:25.694Z,81.60
2023-02-14T16:38:54.462Z,82.02
2023-02-14T16:41:27.724Z,82.37
2023-02-14T16:43:56.774Z,82.64
2023-02-14T16:46:26.865Z,83.06
2023-02-14T16:48:55.271Z,83.08
2023-02-14T16:51:28.108Z,83.35
2023-02-14T16:53:57.587Z,83.39
2023-02-14T16:56:26.133Z,83.70
2023-02-14T16:58:58.573Z,83.67
2023-02-14T17:01:27.840Z,83.29
2023-02-14T17:03:57.125Z,83.43
2023-02-14T17:06:31.562Z,83.27
2023-02-14T17:09:02.099Z,83.22
2023-02-14T17:11:31.415Z,83.27
2023-02-14T17:13:59.755Z,83.43
2023-02-14T17:16:33.291Z,83.53
2023-02-14T17:19:01.776Z,83.60
2023-02-14T17:21:37.183Z,83.61
2023-02-14T17:24:06.532Z,83.99
2023-02-14T17:29:22.478Z,83.39
2023-02-14T17:31:56.951Z,83.31
2023-02-14T17:34:25.631Z,82.83
2023-02-14T17:36:58.368Z,82.64
2023-02-14T17:39:32.015Z,82.42
2023-02-14T17:42:01.848Z,81.91
2023-02-14T17:44:33.308Z,81.80
2023-02-14T17:47:06.860Z,81.64
2023-02-14T17:49:46.557Z,81.57
2023-02-14T17:52:16.607Z,81.30
2023-02-14T17:54:45.919Z,81.44
2023-02-14T17:57:14.663Z,81.41
2023-02-14T17:59:45.871Z,81.27
2023-02-14T18:02:14.924Z,81.31
2023-02-14T18:04:43.742Z,81.25
2023-02-14T18:07:16.555Z,80.93
2023-02-14T18:09:45.356Z,80.78
2023-02-14T18:12:20.149Z,80.48
2023-02-14T18:14:48.511Z,80.44
2023-02-14T18:17:16.996Z,80.39
2023-02-14T18:19:47.049Z,80.46
2023-02-14T18:22:16.161Z,80.64
2023-02-14T18:24:47.188Z,80.55
2023-02-14T18:27:16.301Z,80.39
2023-02-14T18:29:44.790Z,80.63
2023-02-14T18:38:58.637Z,80.52
2023-02-14T18:41:36.171Z,80.20
2023-02-14T18:47:57.855Z,80.37
2023-02-14T18:50:29.403Z,80.52
2023-02-14T18:53:00.336Z,80.49
2023-02-14T18:55:29.859Z,80.61
2023-02-14T18:58:00.174Z,80.80
2023-02-14T19:00:32.847Z,80.87
2023-02-14T19:03:01.122Z,80.84
2023-02-14T19:05:41.498Z,80.79
2023-02-14T19:08:10.378Z,80.77
2023-02-14T19:10:39.641Z,80.84
2023-02-14T19:13:08.309Z,81.08
2023-02-14T19:15:38.075Z,81.38
2023-02-14T19:18:07.138Z,81.76
2023-02-14T19:20:40.164Z,81.89
2023-02-14T19:23:12.983Z,81.86
2023-02-14T19:25:43.979Z,81.79
2023-02-14T19:28:12.385Z,82.00
2023-02-14T19:30:41.433Z,82.01
2023-02-14T19:33:10.376Z,81.70
2023-02-14T19:35:43.255Z,81.79
2023-02-14T19:38:12.368Z,81.29
2023-02-14T19:40:45.313Z,81.18
2023-02-14T19:43:14.318Z,81.42
2023-02-14T19:45:44.643Z,81.63
2023-02-14T19:48:17.677Z,81.68
2023-02-14T19:50:45.969Z,81.73
2023-02-14T19:53:15.573Z,81.79
2023-02-14T19:55:50.493Z,82.07
2023-02-14T19:58:20.144Z,81.97
2023-02-14T20:00:59.804Z,81.93
2023-02-14T20:03:31.340Z,81.68
2023-02-14T20:06:21.944Z,81.43
2023-02-14T20:08:51.495Z,81.56
2023-02-14T20:11:40.081Z,81.30
2023-02-14T20:14:10.808Z,81.36
2023-02-14T20:16:42.589Z,81.63
2023-02-14T20:19:13.343Z,81.94
2023-02-14T20:21:47.533Z,81.88
2023-02-14T20:24:21.042Z,81.83
2023-02-14T20:26:51.978Z,81.89
2023-02-14T20:29:21.084Z,82.03
2023-02-14T20:31:51.651Z,81.97
2023-02-14T20:34:21.148Z,81.82
2023-02-14T20:36:55.521Z,81.50
2023-02-14T20:39:30.750Z,81.40
2023-02-14T20:42:02.525Z,81.33
2023-02-14T20:44:32.234Z,81.24
2023-02-14T20:47:01.498Z,81.36
2023-02-14T20:49:31.425Z,81.40
2023-02-14T20:51:59.612Z,81.22
2023-02-14T20:54:29.972Z,81.19
2023-02-14T20:56:58.703Z,81.34
2023-02-14T20:59:29.161Z,81.20
2023-02-14T21:01:58.768Z,80.98
2023-02-14T21:04:29.753Z,80.98
2023-02-14T21:07:00.860Z,80.95
2023-02-14T21:09:33.667Z,80.76
2023-02-14T21:12:02.738Z,80.89
2023-02-14T21:14:32.488Z,80.86
2023-02-14T21:17:01.843Z,80.86
2023-02-14T21:19:32.004Z,80.91
2023-02-14T21:22:00.592Z,80.83
2023-02-14T21:24:30.631Z,80.62
2023-02-14T21:27:02.948Z,80.47
2023-02-14T21:29:33.730Z,80.36
2023-02-14T21:32:03.731Z,80.20
2023-02-14T21:34:33.757Z,80.06
2023-02-14T21:37:03.990Z,80.22
2023-02-14T21:39:35.934Z,80.40
2023-02-14T21:42:05.604Z,80.32
2023-02-14T21:44:53.650Z,80.68
2023-02-14T21:47:22.379Z,81.01
2023-02-14T21:50:10.519Z,81.15
2023-02-14T21:52:39.230Z,81.26
2023-02-14T21:55:11.787Z,81.04
2023-02-14T21:57:40.138Z,80.88
2023-02-14T22:00:09.517Z,80.88
2023-02-14T22:02:41.178Z,80.92
2023-02-14T22:05:09.896Z,81.08
2023-02-14T22:07:38.377Z,81.26
2023-02-14T22:10:07.904Z,81.08
2023-02-14T22:12:36.504Z,81.48
2023-02-14T22:15:05.608Z,81.40
2023-02-14T22:17:36.557Z,81.58
2023-02-14T22:20:06.485Z,81.43
2023-02-14T22:22:35.304Z,81.29
2023-02-14T22:25:03.639Z,81.29
2023-02-14T22:27:32.410Z,81.20
2023-02-14T22:30:08.411Z,81.36
2023-02-14T22:32:37.887Z,81.45
2023-02-14T22:35:07.989Z,81.46
2023-02-14T22:37:37.513Z,81.58
2023-02-14T22:40:09.280Z,81.96
2023-02-14T22:42:38.481Z,81.90
2023-02-14T22:45:07.306Z,82.13
2023-02-14T22:47:39.073Z,82.17
2023-02-14T22:50:08.370Z,81.87
2023-02-14T22:52:37.355Z,81.79
2023-02-14T22:55:06.630Z,81.78
2023-02-14T22:57:38.727Z,81.69
2023-02-14T23:00:11.976Z,81.81
2023-02-14T23:02:41.907Z,81.63
2023-02-14T23:05:10.386Z,81.69
2023-02-14T23:07:40.372Z,81.93
2023-02-14T23:10:08.924Z,82.06
2023-02-14T23:13:01.810Z,82.41
2023-02-14T23:15:48.812Z,82.64
2023-02-14T23:18:35.924Z,82.78
2023-02-14T23:21:22.739Z,82.92
2023-02-14T23:23:51.010Z,82.87
2023-02-14T23:26:20.407Z,82.71
2023-02-14T23:28:53.075Z,82.66
2023-02-14T23:31:22.373Z,82.62
2023-02-14T23:33:52.224Z,82.40
2023-02-14T23:36:21.443Z,82.43
2023-02-14T23:38:50.033Z,82.45
2023-02-14T23:41:37.254Z,82.38
2023-02-14T23:44:06.341Z,82.48
2023-02-14T23:46:34.804Z,82.24
2023-02-14T23:49:03.405Z,82.08
2023-02-14T23:51:32.008Z,81.82
2023-02-14T23:54:00.386Z,81.70
2023-02-14T23:56:29.684Z,81.45
2023-02-14T23:58:58.140Z,81.14
